Aviation Digital Data Service (ADDS)

Output produced by METARs form (1316 UTC 26 March 2019)
found at http://www.aviationweather.gov/metar/data/
 
HEAX 261200Z 27012KT 9999 FEW020 20/09 Q1013 NOSIG
TAF HEAX 261100Z 2612/2718 27012KT 9999 SCT020 
     TEMPO 2700/2706 VRB03KT
       
HEBA 261200Z 30014KT CAVOK 20/07 Q1013 NOSIG
TAF HEBA 261100Z 2612/2718 29015KT 9999 SCT020 
     TEMPO 2700/2706 VRB03KT
       
HESN 261000Z 29005KT CAVOK 23/M05 Q1017 NOSIG
TAF HESN 261100Z 2612/2718 35012KT CAVOK
       
HEAT 261200Z 26013KT CAVOK 23/04 Q1017 NOSIG
TAF HEAT 261100Z 2612/2718 25014KT CAVOK
       
HECA 261300Z 25012KT 9999 SCT025 23/03 Q1013 NOSIG
TAF HECA 261100Z 2612/2718 26012KT 9999 SCT025 
     PROB40 
     TEMPO 2613/2615 4000 SA
       
HEAR 261200Z 26006KT 9999 SCT020 20/04 Q1013 NOSIG
TAF HEAR 261100Z 2612/2718 24009KT 9999 SCT025
       
HEGN 261200Z 33006KT CAVOK 27/06 Q1013 NOSIG
TAF HEGN 261100Z 2612/2718 30012KT CAVOK
       
HELX 261200Z 25006KT CAVOK 24/04 Q1015 NOSIG
TAF HELX 261100Z 2612/2718 26008KT CAVOK
       
HEMM 261200Z 31017KT 8000 SCT020 19/12 Q1015 NOSIG
TAF HEMM 261100Z 2612/2718 33010G20KT 9999 SCT020 
     BECMG 2622/2624 22010KT 
     BECMG 2706/2708 28012KT
       
HEPS 261200Z 26013KT 9999 SCT025 SCT030 18/11 Q1013 NOSIG
TAF HEPS 261100Z 2612/2718 28010KT 9999 SCT025
       
HESH 261200Z 29009KT CAVOK 25/01 Q1012 NOSIG
TAF HESH 261100Z 2612/2718 28009KT 9999 SCT020
       
TAF HETB 261100Z 2612/2718 04006G18KT CAVOK